sensor_id;sensor_type;location;lat;lon;timestamp;pressure;altitude;pressure_sealevel;temperature
7882;BMP180;3986;41.884;23.466;2022-12-18T00:00:44;92358.00;;;10.40
7882;BMP180;3986;41.884;23.466;2022-12-18T00:03:13;92512.00;;;10.50
7882;BMP180;3986;41.884;23.466;2022-12-18T00:05:46;92507.00;;;10.60
7882;BMP180;3986;41.884;23.466;2022-12-18T00:08:13;92514.00;;;10.20
7882;BMP180;3986;41.884;23.466;2022-12-18T00:10:40;92522.00;;;9.90
7882;BMP180;3986;41.884;23.466;2022-12-18T00:13:07;92510.00;;;10.00
7882;BMP180;3986;41.884;23.466;2022-12-18T00:15:34;92516.00;;;10.10
7882;BMP180;3986;41.884;23.466;2022-12-18T00:18:00;92517.00;;;10.10
7882;BMP180;3986;41.884;23.466;2022-12-18T00:20:29;92533.00;;;10.10
7882;BMP180;3986;41.884;23.466;2022-12-18T00:22:56;92531.00;;;10.10
7882;BMP180;3986;41.884;23.466;2022-12-18T00:25:23;92522.00;;;10.20
7882;BMP180;3986;41.884;23.466;2022-12-18T00:27:49;92527.00;;;10.40
7882;BMP180;3986;41.884;23.466;2022-12-18T00:30:16;92519.00;;;10.50
7882;BMP180;3986;41.884;23.466;2022-12-18T00:32:43;92522.00;;;10.50
7882;BMP180;3986;41.884;23.466;2022-12-18T00:35:10;92521.00;;;10.60
7882;BMP180;3986;41.884;23.466;2022-12-18T00:37:38;92524.00;;;10.50
7882;BMP180;3986;41.884;23.466;2022-12-18T00:40:06;92526.00;;;10.40
7882;BMP180;3986;41.884;23.466;2022-12-18T00:42:36;92527.00;;;10.50
7882;BMP180;3986;41.884;23.466;2022-12-18T00:45:20;92535.00;;;10.60
7882;BMP180;3986;41.884;23.466;2022-12-18T00:47:46;92533.00;;;10.60
7882;BMP180;3986;41.884;23.466;2022-12-18T00:50:13;92531.00;;;10.60
7882;BMP180;3986;41.884;23.466;2022-12-18T00:52:41;92530.00;;;10.50
7882;BMP180;3986;41.884;23.466;2022-12-18T00:55:09;92523.00;;;10.50
7882;BMP180;3986;41.884;23.466;2022-12-18T00:57:36;92536.00;;;10.50
7882;BMP180;3986;41.884;23.466;2022-12-18T01:00:04;92536.00;;;10.20
7882;BMP180;3986;41.884;23.466;2022-12-18T01:02:31;92530.00;;;10.20
7882;BMP180;3986;41.884;23.466;2022-12-18T01:04:57;92539.00;;;10.10
7882;BMP180;3986;41.884;23.466;2022-12-18T01:07:24;92538.00;;;10.20
7882;BMP180;3986;41.884;23.466;2022-12-18T01:09:52;92539.00;;;10.20
7882;BMP180;3986;41.884;23.466;2022-12-18T01:12:19;92542.00;;;10.30
7882;BMP180;3986;41.884;23.466;2022-12-18T01:14:46;92537.00;;;10.00
7882;BMP180;3986;41.884;23.466;2022-12-18T01:17:13;92538.00;;;10.00
7882;BMP180;3986;41.884;23.466;2022-12-18T01:19:39;92541.00;;;9.90
7882;BMP180;3986;41.884;23.466;2022-12-18T01:22:07;92544.00;;;9.80
7882;BMP180;3986;41.884;23.466;2022-12-18T01:24:34;92534.00;;;9.80
7882;BMP180;3986;41.884;23.466;2022-12-18T01:27:02;92548.00;;;9.60
7882;BMP180;3986;41.884;23.466;2022-12-18T01:29:29;92551.00;;;9.70
7882;BMP180;3986;41.884;23.466;2022-12-18T01:31:56;92552.00;;;9.80
7882;BMP180;3986;41.884;23.466;2022-12-18T01:34:23;92549.00;;;10.10
7882;BMP180;3986;41.884;23.466;2022-12-18T01:36:50;92549.00;;;10.30
7882;BMP180;3986;41.884;23.466;2022-12-18T01:39:17;92554.00;;;10.30
7882;BMP180;3986;41.884;23.466;2022-12-18T01:41:45;92558.00;;;10.20
7882;BMP180;3986;41.884;23.466;2022-12-18T01:47:39;92593.00;;;10.00
7882;BMP180;3986;41.884;23.466;2022-12-18T01:50:12;92566.00;;;9.90
7882;BMP180;3986;41.884;23.466;2022-12-18T01:52:40;92571.00;;;9.90
7882;BMP180;3986;41.884;23.466;2022-12-18T01:55:10;92566.00;;;9.90
7882;BMP180;3986;41.884;23.466;2022-12-18T01:57:37;92566.00;;;10.10
7882;BMP180;3986;41.884;23.466;2022-12-18T02:00:09;92566.00;;;10.30
7882;BMP180;3986;41.884;23.466;2022-12-18T02:02:37;92583.00;;;10.10
7882;BMP180;3986;41.884;23.466;2022-12-18T02:05:06;92561.00;;;9.90
7882;BMP180;3986;41.884;23.466;2022-12-18T02:07:42;92556.00;;;9.90
7882;BMP180;3986;41.884;23.466;2022-12-18T02:10:16;92566.00;;;9.50
7882;BMP180;3986;41.884;23.466;2022-12-18T02:12:53;92568.00;;;9.80
7882;BMP180;3986;41.884;23.466;2022-12-18T02:15:26;92563.00;;;9.80
7882;BMP180;3986;41.884;23.466;2022-12-18T02:17:59;92590.00;;;9.60
7882;BMP180;3986;41.884;23.466;2022-12-18T02:20:34;92565.00;;;9.80
7882;BMP180;3986;41.884;23.466;2022-12-18T02:23:08;92568.00;;;9.80
7882;BMP180;3986;41.884;23.466;2022-12-18T02:28:38;92567.00;;;10.10
7882;BMP180;3986;41.884;23.466;2022-12-18T02:31:08;92568.00;;;10.00
7882;BMP180;3986;41.884;23.466;2022-12-18T02:33:38;92578.00;;;9.90
7882;BMP180;3986;41.884;23.466;2022-12-18T02:36:08;92568.00;;;9.90
7882;BMP180;3986;41.884;23.466;2022-12-18T02:38:36;92571.00;;;10.00
7882;BMP180;3986;41.884;23.466;2022-12-18T02:41:04;92569.00;;;10.20
7882;BMP180;3986;41.884;23.466;2022-12-18T02:43:31;92567.00;;;10.20
7882;BMP180;3986;41.884;23.466;2022-12-18T02:46:00;92567.00;;;10.10
7882;BMP180;3986;41.884;23.466;2022-12-18T02:48:46;92567.00;;;9.90
7882;BMP180;3986;41.884;23.466;2022-12-18T02:51:18;92572.00;;;9.90
7882;BMP180;3986;41.884;23.466;2022-12-18T02:53:51;92573.00;;;9.70
7882;BMP180;3986;41.884;23.466;2022-12-18T02:56:21;92565.00;;;9.50
7882;BMP180;3986;41.884;23.466;2022-12-18T02:58:56;92579.00;;;9.40
7882;BMP180;3986;41.884;23.466;2022-12-18T03:01:31;92581.00;;;9.50
7882;BMP180;3986;41.884;23.466;2022-12-18T03:04:03;92574.00;;;9.50
7882;BMP180;3986;41.884;23.466;2022-12-18T03:06:33;92612.00;;;9.70
7882;BMP180;3986;41.884;23.466;2022-12-18T03:09:06;92582.00;;;9.80
7882;BMP180;3986;41.884;23.466;2022-12-18T03:11:35;92582.00;;;9.30
7882;BMP180;3986;41.884;23.466;2022-12-18T03:14:23;92580.00;;;9.30
7882;BMP180;3986;41.884;23.466;2022-12-18T03:16:58;92578.00;;;9.60
7882;BMP180;3986;41.884;23.466;2022-12-18T03:19:28;92589.00;;;9.60
7882;BMP180;3986;41.884;23.466;2022-12-18T03:21:56;92614.00;;;9.50
7882;BMP180;3986;41.884;23.466;2022-12-18T03:24:25;92586.00;;;9.50
7882;BMP180;3986;41.884;23.466;2022-12-18T03:26:54;92599.00;;;9.50
7882;BMP180;3986;41.884;23.466;2022-12-18T03:29:27;92602.00;;;9.50
7882;BMP180;3986;41.884;23.466;2022-12-18T03:32:00;92522.00;;;9.50
7882;BMP180;3986;41.884;23.466;2022-12-18T03:34:30;92602.00;;;9.40
7882;BMP180;3986;41.884;23.466;2022-12-18T03:36:58;92603.00;;;9.30
7882;BMP180;3986;41.884;23.466;2022-12-18T03:39:25;92602.00;;;9.40
7882;BMP180;3986;41.884;23.466;2022-12-18T03:41:56;92608.00;;;9.50
7882;BMP180;3986;41.884;23.466;2022-12-18T03:44:29;92616.00;;;9.60
7882;BMP180;3986;41.884;23.466;2022-12-18T03:47:02;92620.00;;;9.60
7882;BMP180;3986;41.884;23.466;2022-12-18T03:49:35;92622.00;;;9.60
7882;BMP180;3986;41.884;23.466;2022-12-18T03:52:06;92592.00;;;9.30
7882;BMP180;3986;41.884;23.466;2022-12-18T03:54:35;92618.00;;;9.40
7882;BMP180;3986;41.884;23.466;2022-12-18T03:57:06;92626.00;;;9.50
7882;BMP180;3986;41.884;23.466;2022-12-18T03:59:34;92620.00;;;9.40
7882;BMP180;3986;41.884;23.466;2022-12-18T04:02:04;92614.00;;;9.30
7882;BMP180;3986;41.884;23.466;2022-12-18T04:04:32;92623.00;;;9.30
7882;BMP180;3986;41.884;23.466;2022-12-18T04:07:00;92631.00;;;9.30
7882;BMP180;3986;41.884;23.466;2022-12-18T04:09:28;92638.00;;;9.20
7882;BMP180;3986;41.884;23.466;2022-12-18T04:11:56;92641.00;;;9.40
7882;BMP180;3986;41.884;23.466;2022-12-18T04:14:23;92644.00;;;9.20
7882;BMP180;3986;41.884;23.466;2022-12-18T04:16:50;92640.00;;;9.20
7882;BMP180;3986;41.884;23.466;2022-12-18T04:19:18;92634.00;;;9.30
7882;BMP180;3986;41.884;23.466;2022-12-18T04:21:45;92645.00;;;9.40
7882;BMP180;3986;41.884;23.466;2022-12-18T04:24:11;92645.00;;;9.30
7882;BMP180;3986;41.884;23.466;2022-12-18T04:26:38;92645.00;;;9.30
7882;BMP180;3986;41.884;23.466;2022-12-18T04:29:05;92651.00;;;9.30
7882;BMP180;3986;41.884;23.466;2022-12-18T04:31:32;92654.00;;;9.50
7882;BMP180;3986;41.884;23.466;2022-12-18T04:33:58;92657.00;;;9.50
7882;BMP180;3986;41.884;23.466;2022-12-18T04:36:28;92655.00;;;9.30
7882;BMP180;3986;41.884;23.466;2022-12-18T04:38:55;92677.00;;;9.30
7882;BMP180;3986;41.884;23.466;2022-12-18T04:41:22;92661.00;;;9.30
7882;BMP180;3986;41.884;23.466;2022-12-18T04:43:48;92656.00;;;9.10
7882;BMP180;3986;41.884;23.466;2022-12-18T04:46:15;92660.00;;;9.30
7882;BMP180;3986;41.884;23.466;2022-12-18T04:48:45;92663.00;;;9.20
7882;BMP180;3986;41.884;23.466;2022-12-18T04:51:12;92670.00;;;9.30
7882;BMP180;3986;41.884;23.466;2022-12-18T04:53:40;92669.00;;;9.30
7882;BMP180;3986;41.884;23.466;2022-12-18T04:56:08;92666.00;;;9.30
7882;BMP180;3986;41.884;23.466;2022-12-18T04:58:36;92687.00;;;9.20
7882;BMP180;3986;41.884;23.466;2022-12-18T05:01:03;92671.00;;;9.30
7882;BMP180;3986;41.884;23.466;2022-12-18T05:03:30;92659.00;;;9.20
7882;BMP180;3986;41.884;23.466;2022-12-18T05:05:56;92669.00;;;8.60
7882;BMP180;3986;41.884;23.466;2022-12-18T05:08:23;92678.00;;;8.90
7882;BMP180;3986;41.884;23.466;2022-12-18T05:10:59;92685.00;;;8.60
7882;BMP180;3986;41.884;23.466;2022-12-18T05:13:26;92686.00;;;8.70
7882;BMP180;3986;41.884;23.466;2022-12-18T05:15:53;92676.00;;;8.60
7882;BMP180;3986;41.884;23.466;2022-12-18T05:18:20;92524.00;;;8.70
7882;BMP180;3986;41.884;23.466;2022-12-18T05:20:47;92679.00;;;8.80
7882;BMP180;3986;41.884;23.466;2022-12-18T05:23:15;92642.00;;;8.80
7882;BMP180;3986;41.884;23.466;2022-12-18T05:25:42;92681.00;;;8.70
7882;BMP180;3986;41.884;23.466;2022-12-18T05:28:10;92692.00;;;8.90
7882;BMP180;3986;41.884;23.466;2022-12-18T05:30:37;92690.00;;;9.00
7882;BMP180;3986;41.884;23.466;2022-12-18T05:33:04;92697.00;;;9.00
7882;BMP180;3986;41.884;23.466;2022-12-18T05:35:30;92692.00;;;9.20
7882;BMP180;3986;41.884;23.466;2022-12-18T05:37:57;92694.00;;;8.80
7882;BMP180;3986;41.884;23.466;2022-12-18T05:40:24;92698.00;;;8.60
7882;BMP180;3986;41.884;23.466;2022-12-18T05:42:51;92703.00;;;8.70
7882;BMP180;3986;41.884;23.466;2022-12-18T05:45:19;92709.00;;;9.00
7882;BMP180;3986;41.884;23.466;2022-12-18T05:47:46;92703.00;;;9.10
7882;BMP180;3986;41.884;23.466;2022-12-18T05:50:13;92703.00;;;9.30
7882;BMP180;3986;41.884;23.466;2022-12-18T05:52:40;92715.00;;;9.00
7882;BMP180;3986;41.884;23.466;2022-12-18T05:55:07;92714.00;;;9.00
7882;BMP180;3986;41.884;23.466;2022-12-18T05:57:34;92710.00;;;9.30
7882;BMP180;3986;41.884;23.466;2022-12-18T06:00:01;92718.00;;;9.30
7882;BMP180;3986;41.884;23.466;2022-12-18T06:02:29;92716.00;;;9.20
7882;BMP180;3986;41.884;23.466;2022-12-18T06:04:56;92721.00;;;9.10
7882;BMP180;3986;41.884;23.466;2022-12-18T06:07:23;92720.00;;;9.30
7882;BMP180;3986;41.884;23.466;2022-12-18T06:09:49;92717.00;;;9.40
7882;BMP180;3986;41.884;23.466;2022-12-18T06:12:16;92723.00;;;9.30
7882;BMP180;3986;41.884;23.466;2022-12-18T06:14:43;92732.00;;;9.20
7882;BMP180;3986;41.884;23.466;2022-12-18T06:17:10;92733.00;;;9.20
7882;BMP180;3986;41.884;23.466;2022-12-18T06:19:38;92740.00;;;9.40
7882;BMP180;3986;41.884;23.466;2022-12-18T06:22:05;92745.00;;;9.50
7882;BMP180;3986;41.884;23.466;2022-12-18T06:24:32;92735.00;;;9.20
7882;BMP180;3986;41.884;23.466;2022-12-18T06:26:58;92735.00;;;9.30
7882;BMP180;3986;41.884;23.466;2022-12-18T06:29:25;92744.00;;;9.30
7882;BMP180;3986;41.884;23.466;2022-12-18T06:31:52;92751.00;;;9.30
7882;BMP180;3986;41.884;23.466;2022-12-18T06:34:19;92753.00;;;9.30
7882;BMP180;3986;41.884;23.466;2022-12-18T06:36:47;92754.00;;;9.40
7882;BMP180;3986;41.884;23.466;2022-12-18T06:39:14;92758.00;;;9.50
7882;BMP180;3986;41.884;23.466;2022-12-18T06:41:40;92763.00;;;9.60
7882;BMP180;3986;41.884;23.466;2022-12-18T06:44:07;92760.00;;;9.60
7882;BMP180;3986;41.884;23.466;2022-12-18T06:46:34;92769.00;;;9.60
7882;BMP180;3986;41.884;23.466;2022-12-18T06:49:01;92772.00;;;9.40
7882;BMP180;3986;41.884;23.466;2022-12-18T06:51:27;92768.00;;;9.40
7882;BMP180;3986;41.884;23.466;2022-12-18T06:53:56;92767.00;;;9.60
7882;BMP180;3986;41.884;23.466;2022-12-18T06:56:22;92775.00;;;9.70
7882;BMP180;3986;41.884;23.466;2022-12-18T06:58:50;92773.00;;;9.70
7882;BMP180;3986;41.884;23.466;2022-12-18T07:01:17;92776.00;;;9.50
7882;BMP180;3986;41.884;23.466;2022-12-18T07:03:44;92786.00;;;9.50
7882;BMP180;3986;41.884;23.466;2022-12-18T07:06:13;92786.00;;;9.30
7882;BMP180;3986;41.884;23.466;2022-12-18T07:08:41;92786.00;;;9.50
7882;BMP180;3986;41.884;23.466;2022-12-18T07:11:09;92677.00;;;9.30
7882;BMP180;3986;41.884;23.466;2022-12-18T07:13:36;92818.00;;;9.10
7882;BMP180;3986;41.884;23.466;2022-12-18T07:16:05;92801.00;;;9.10
7882;BMP180;3986;41.884;23.466;2022-12-18T07:18:32;92806.00;;;9.30
7882;BMP180;3986;41.884;23.466;2022-12-18T07:21:02;92826.00;;;9.20
7882;BMP180;3986;41.884;23.466;2022-12-18T07:23:29;92803.00;;;9.30
7882;BMP180;3986;41.884;23.466;2022-12-18T07:26:03;92802.00;;;9.20
7882;BMP180;3986;41.884;23.466;2022-12-18T07:28:32;92803.00;;;9.30
7882;BMP180;3986;41.884;23.466;2022-12-18T07:31:02;92808.00;;;9.40
7882;BMP180;3986;41.884;23.466;2022-12-18T07:33:29;92808.00;;;9.60
7882;BMP180;3986;41.884;23.466;2022-12-18T07:35:56;92819.00;;;9.60
7882;BMP180;3986;41.884;23.466;2022-12-18T07:38:24;92808.00;;;9.70
7882;BMP180;3986;41.884;23.466;2022-12-18T07:40:51;92822.00;;;9.70
7882;BMP180;3986;41.884;23.466;2022-12-18T07:43:18;92823.00;;;9.70
7882;BMP180;3986;41.884;23.466;2022-12-18T07:45:49;92830.00;;;9.90
7882;BMP180;3986;41.884;23.466;2022-12-18T07:48:15;92839.00;;;9.90
7882;BMP180;3986;41.884;23.466;2022-12-18T07:50:42;92834.00;;;9.80
7882;BMP180;3986;41.884;23.466;2022-12-18T07:53:09;92828.00;;;9.80
7882;BMP180;3986;41.884;23.466;2022-12-18T07:55:36;92838.00;;;10.00
7882;BMP180;3986;41.884;23.466;2022-12-18T07:58:03;92837.00;;;10.10
7882;BMP180;3986;41.884;23.466;2022-12-18T08:00:30;92848.00;;;10.10
7882;BMP180;3986;41.884;23.466;2022-12-18T08:02:58;92854.00;;;10.00
7882;BMP180;3986;41.884;23.466;2022-12-18T08:05:25;92850.00;;;10.00
7882;BMP180;3986;41.884;23.466;2022-12-18T08:07:52;92712.00;;;10.20
7882;BMP180;3986;41.884;23.466;2022-12-18T08:10:20;92871.00;;;10.00
7882;BMP180;3986;41.884;23.466;2022-12-18T08:12:49;92855.00;;;9.70
7882;BMP180;3986;41.884;23.466;2022-12-18T08:15:16;92852.00;;;9.60
7882;BMP180;3986;41.884;23.466;2022-12-18T08:17:43;92709.00;;;10.20
7882;BMP180;3986;41.884;23.466;2022-12-18T08:20:11;92855.00;;;10.20
7882;BMP180;3986;41.884;23.466;2022-12-18T08:22:40;92860.00;;;10.20
7882;BMP180;3986;41.884;23.466;2022-12-18T08:25:07;92727.00;;;10.30
7882;BMP180;3986;41.884;23.466;2022-12-18T08:27:34;92857.00;;;10.40
7882;BMP180;3986;41.884;23.466;2022-12-18T08:30:01;92857.00;;;10.50
7882;BMP180;3986;41.884;23.466;2022-12-18T08:32:28;92859.00;;;10.00
7882;BMP180;3986;41.884;23.466;2022-12-18T08:34:55;92870.00;;;9.80
7882;BMP180;3986;41.884;23.466;2022-12-18T08:37:23;92867.00;;;9.60
7882;BMP180;3986;41.884;23.466;2022-12-18T08:39:50;92866.00;;;9.60
7882;BMP180;3986;41.884;23.466;2022-12-18T08:42:17;92861.00;;;9.50
7882;BMP180;3986;41.884;23.466;2022-12-18T08:45:01;92867.00;;;9.70
7882;BMP180;3986;41.884;23.466;2022-12-18T08:47:28;92863.00;;;10.00
7882;BMP180;3986;41.884;23.466;2022-12-18T08:49:55;92860.00;;;10.70
7882;BMP180;3986;41.884;23.466;2022-12-18T08:52:21;92865.00;;;10.00
7882;BMP180;3986;41.884;23.466;2022-12-18T08:54:50;92871.00;;;10.10
7882;BMP180;3986;41.884;23.466;2022-12-18T08:57:16;92839.00;;;10.50
7882;BMP180;3986;41.884;23.466;2022-12-18T08:59:43;92870.00;;;11.10
7882;BMP180;3986;41.884;23.466;2022-12-18T09:02:10;92862.00;;;11.50
7882;BMP180;3986;41.884;23.466;2022-12-18T09:04:37;92870.00;;;11.30
7882;BMP180;3986;41.884;23.466;2022-12-18T09:07:05;92868.00;;;11.40
7882;BMP180;3986;41.884;23.466;2022-12-18T09:09:31;92868.00;;;11.70
7882;BMP180;3986;41.884;23.466;2022-12-18T09:12:00;92866.00;;;12.20
7882;BMP180;3986;41.884;23.466;2022-12-18T09:14:26;92867.00;;;11.60
7882;BMP180;3986;41.884;23.466;2022-12-18T09:16:53;92861.00;;;11.20
7882;BMP180;3986;41.884;23.466;2022-12-18T09:19:20;92869.00;;;12.00
7882;BMP180;3986;41.884;23.466;2022-12-18T09:21:47;92866.00;;;12.30
7882;BMP180;3986;41.884;23.466;2022-12-18T09:24:14;92876.00;;;11.90
7882;BMP180;3986;41.884;23.466;2022-12-18T09:26:41;92864.00;;;12.20
7882;BMP180;3986;41.884;23.466;2022-12-18T09:29:09;92864.00;;;12.60
7882;BMP180;3986;41.884;23.466;2022-12-18T09:31:38;92861.00;;;12.40
7882;BMP180;3986;41.884;23.466;2022-12-18T09:34:05;92853.00;;;12.20
7882;BMP180;3986;41.884;23.466;2022-12-18T09:36:31;92856.00;;;11.90
7882;BMP180;3986;41.884;23.466;2022-12-18T09:38:58;92857.00;;;12.00
7882;BMP180;3986;41.884;23.466;2022-12-18T09:41:36;92864.00;;;11.60
7882;BMP180;3986;41.884;23.466;2022-12-18T09:44:15;92861.00;;;11.50
7882;BMP180;3986;41.884;23.466;2022-12-18T09:46:46;92708.00;;;11.20
7882;BMP180;3986;41.884;23.466;2022-12-18T09:49:18;92796.00;;;11.10
7882;BMP180;3986;41.884;23.466;2022-12-18T09:51:50;92862.00;;;10.50
7882;BMP180;3986;41.884;23.466;2022-12-18T09:54:20;92872.00;;;10.70
7882;BMP180;3986;41.884;23.466;2022-12-18T09:56:48;92861.00;;;10.70
7882;BMP180;3986;41.884;23.466;2022-12-18T09:59:22;92797.00;;;10.40
7882;BMP180;3986;41.884;23.466;2022-12-18T10:01:50;92715.00;;;10.50
7882;BMP180;3986;41.884;23.466;2022-12-18T10:04:17;92852.00;;;11.20
7882;BMP180;3986;41.884;23.466;2022-12-18T10:06:49;92848.00;;;11.40
7882;BMP180;3986;41.884;23.466;2022-12-18T10:09:27;92845.00;;;11.60
7882;BMP180;3986;41.884;23.466;2022-12-18T10:12:01;92851.00;;;11.20
7882;BMP180;3986;41.884;23.466;2022-12-18T10:14:35;92845.00;;;10.60
7882;BMP180;3986;41.884;23.466;2022-12-18T10:17:13;92844.00;;;10.10
7882;BMP180;3986;41.884;23.466;2022-12-18T10:19:44;92847.00;;;10.60
7882;BMP180;3986;41.884;23.466;2022-12-18T10:22:33;92843.00;;;10.90
7882;BMP180;3986;41.884;23.466;2022-12-18T10:25:15;92846.00;;;11.50
7882;BMP180;3986;41.884;23.466;2022-12-18T10:27:44;92847.00;;;11.00
7882;BMP180;3986;41.884;23.466;2022-12-18T10:30:16;92844.00;;;11.20
7882;BMP180;3986;41.884;23.466;2022-12-18T10:32:43;92843.00;;;11.20
7882;BMP180;3986;41.884;23.466;2022-12-18T10:35:17;92796.00;;;11.10
7882;BMP180;3986;41.884;23.466;2022-12-18T10:38:04;92849.00;;;11.00
7882;BMP180;3986;41.884;23.466;2022-12-18T10:40:32;92846.00;;;11.20
7882;BMP180;3986;41.884;23.466;2022-12-18T10:43:13;92851.00;;;11.00
7882;BMP180;3986;41.884;23.466;2022-12-18T10:45:58;92843.00;;;11.00
7882;BMP180;3986;41.884;23.466;2022-12-18T10:48:26;92848.00;;;11.30
7882;BMP180;3986;41.884;23.466;2022-12-18T10:50:54;92843.00;;;11.40
7882;BMP180;3986;41.884;23.466;2022-12-18T10:53:23;92840.00;;;11.40
7882;BMP180;3986;41.884;23.466;2022-12-18T10:55:52;92844.00;;;11.40
7882;BMP180;3986;41.884;23.466;2022-12-18T10:58:23;92845.00;;;11.20
7882;BMP180;3986;41.884;23.466;2022-12-18T11:01:09;92843.00;;;10.90
7882;BMP180;3986;41.884;23.466;2022-12-18T11:03:38;92845.00;;;10.90
7882;BMP180;3986;41.884;23.466;2022-12-18T11:06:08;92842.00;;;10.90
7882;BMP180;3986;41.884;23.466;2022-12-18T11:08:35;92834.00;;;10.80
7882;BMP180;3986;41.884;23.466;2022-12-18T11:11:04;92835.00;;;10.80
7882;BMP180;3986;41.884;23.466;2022-12-18T11:13:33;92835.00;;;10.80
7882;BMP180;3986;41.884;23.466;2022-12-18T11:16:00;92835.00;;;11.20
7882;BMP180;3986;41.884;23.466;2022-12-18T11:18:30;92834.00;;;11.20
7882;BMP180;3986;41.884;23.466;2022-12-18T11:21:01;92838.00;;;11.40
7882;BMP180;3986;41.884;23.466;2022-12-18T11:23:33;92832.00;;;10.60
7882;BMP180;3986;41.884;23.466;2022-12-18T11:26:02;92830.00;;;10.30
7882;BMP180;3986;41.884;23.466;2022-12-18T11:28:35;92808.00;;;10.50
7882;BMP180;3986;41.884;23.466;2022-12-18T11:31:22;92827.00;;;10.80
7882;BMP180;3986;41.884;23.466;2022-12-18T11:33:56;92824.00;;;10.80
7882;BMP180;3986;41.884;23.466;2022-12-18T11:36:25;92818.00;;;10.40
7882;BMP180;3986;41.884;23.466;2022-12-18T11:38:55;92779.00;;;10.30
7882;BMP180;3986;41.884;23.466;2022-12-18T11:41:28;92744.00;;;10.40
7882;BMP180;3986;41.884;23.466;2022-12-18T11:44:13;92820.00;;;10.20
7882;BMP180;3986;41.884;23.466;2022-12-18T11:46:46;92823.00;;;10.20
7882;BMP180;3986;41.884;23.466;2022-12-18T11:49:21;92847.00;;;10.20
7882;BMP180;3986;41.884;23.466;2022-12-18T11:51:51;92785.00;;;10.60
7882;BMP180;3986;41.884;23.466;2022-12-18T11:54:19;92823.00;;;10.30
7882;BMP180;3986;41.884;23.466;2022-12-18T11:56:49;92819.00;;;10.20
7882;BMP180;3986;41.884;23.466;2022-12-18T11:59:26;92831.00;;;10.30
7882;BMP180;3986;41.884;23.466;2022-12-18T12:02:00;92830.00;;;10.40
7882;BMP180;3986;41.884;23.466;2022-12-18T12:04:56;92835.00;;;10.40
7882;BMP180;3986;41.884;23.466;2022-12-18T12:07:36;92830.00;;;10.20
7882;BMP180;3986;41.884;23.466;2022-12-18T12:10:19;92826.00;;;10.10
7882;BMP180;3986;41.884;23.466;2022-12-18T12:13:00;92833.00;;;10.30
7882;BMP180;3986;41.884;23.466;2022-12-18T12:15:40;92684.00;;;10.00
7882;BMP180;3986;41.884;23.466;2022-12-18T12:18:21;92828.00;;;10.40
7882;BMP180;3986;41.884;23.466;2022-12-18T12:20:58;92821.00;;;10.20
7882;BMP180;3986;41.884;23.466;2022-12-18T12:23:37;92826.00;;;10.50
7882;BMP180;3986;41.884;23.466;2022-12-18T12:26:08;92824.00;;;9.90
7882;BMP180;3986;41.884;23.466;2022-12-18T12:29:00;92829.00;;;10.00
7882;BMP180;3986;41.884;23.466;2022-12-18T12:31:45;92830.00;;;9.90
7882;BMP180;3986;41.884;23.466;2022-12-18T12:34:18;92838.00;;;9.80
7882;BMP180;3986;41.884;23.466;2022-12-18T12:36:57;92830.00;;;9.70
7882;BMP180;3986;41.884;23.466;2022-12-18T12:39:31;92825.00;;;9.40
7882;BMP180;3986;41.884;23.466;2022-12-18T12:42:00;92830.00;;;9.80
7882;BMP180;3986;41.884;23.466;2022-12-18T12:44:48;92828.00;;;9.70
7882;BMP180;3986;41.884;23.466;2022-12-18T12:47:20;92798.00;;;9.90
7882;BMP180;3986;41.884;23.466;2022-12-18T12:49:49;92825.00;;;10.20
7882;BMP180;3986;41.884;23.466;2022-12-18T12:52:25;92832.00;;;9.90
7882;BMP180;3986;41.884;23.466;2022-12-18T12:54:56;92837.00;;;9.60
7882;BMP180;3986;41.884;23.466;2022-12-18T12:57:30;92830.00;;;9.90
7882;BMP180;3986;41.884;23.466;2022-12-18T13:00:02;92841.00;;;10.00
7882;BMP180;3986;41.884;23.466;2022-12-18T13:02:34;92836.00;;;10.10
7882;BMP180;3986;41.884;23.466;2022-12-18T13:05:06;92845.00;;;9.70
7882;BMP180;3986;41.884;23.466;2022-12-18T13:07:40;92864.00;;;9.60
7882;BMP180;3986;41.884;23.466;2022-12-18T13:10:25;92860.00;;;9.70
7882;BMP180;3986;41.884;23.466;2022-12-18T13:12:57;92854.00;;;9.20
7882;BMP180;3986;41.884;23.466;2022-12-18T13:15:28;92875.00;;;9.70
7882;BMP180;3986;41.884;23.466;2022-12-18T13:18:04;92863.00;;;9.50
7882;BMP180;3986;41.884;23.466;2022-12-18T13:20:36;92866.00;;;9.40
7882;BMP180;3986;41.884;23.466;2022-12-18T13:25:58;92859.00;;;8.90
7882;BMP180;3986;41.884;23.466;2022-12-18T13:34:34;92848.00;;;8.40
7882;BMP180;3986;41.884;23.466;2022-12-18T13:43:23;92872.00;;;8.50
7882;BMP180;3986;41.884;23.466;2022-12-18T13:45:59;92867.00;;;8.10
7882;BMP180;3986;41.884;23.466;2022-12-18T13:48:29;92870.00;;;8.30
7882;BMP180;3986;41.884;23.466;2022-12-18T13:50:59;92869.00;;;8.70
7882;BMP180;3986;41.884;23.466;2022-12-18T13:53:32;92872.00;;;8.50
7882;BMP180;3986;41.884;23.466;2022-12-18T13:56:00;92883.00;;;8.30
7882;BMP180;3986;41.884;23.466;2022-12-18T13:58:29;92873.00;;;8.20
7882;BMP180;3986;41.884;23.466;2022-12-18T14:00:56;92866.00;;;8.10
7882;BMP180;3986;41.884;23.466;2022-12-18T14:03:27;92864.00;;;8.00
7882;BMP180;3986;41.884;23.466;2022-12-18T14:06:01;92866.00;;;7.80
7882;BMP180;3986;41.884;23.466;2022-12-18T14:08:33;92871.00;;;7.90
7882;BMP180;3986;41.884;23.466;2022-12-18T14:11:02;92876.00;;;8.20
7882;BMP180;3986;41.884;23.466;2022-12-18T14:13:33;92880.00;;;7.90
7882;BMP180;3986;41.884;23.466;2022-12-18T14:16:04;92886.00;;;8.00
7882;BMP180;3986;41.884;23.466;2022-12-18T14:18:37;92886.00;;;8.00
7882;BMP180;3986;41.884;23.466;2022-12-18T14:21:05;92879.00;;;7.70
7882;BMP180;3986;41.884;23.466;2022-12-18T14:23:34;92884.00;;;8.10
7882;BMP180;3986;41.884;23.466;2022-12-18T14:26:03;92880.00;;;8.10
7882;BMP180;3986;41.884;23.466;2022-12-18T14:28:47;92911.00;;;7.90
7882;BMP180;3986;41.884;23.466;2022-12-18T14:31:17;92790.00;;;7.80
7882;BMP180;3986;41.884;23.466;2022-12-18T14:33:45;92898.00;;;7.50
7882;BMP180;3986;41.884;23.466;2022-12-18T14:36:15;92897.00;;;7.70
7882;BMP180;3986;41.884;23.466;2022-12-18T14:38:43;92895.00;;;7.70
7882;BMP180;3986;41.884;23.466;2022-12-18T14:41:11;92901.00;;;7.80
7882;BMP180;3986;41.884;23.466;2022-12-18T14:43:40;92902.00;;;7.60
7882;BMP180;3986;41.884;23.466;2022-12-18T14:46:27;92873.00;;;7.60
7882;BMP180;3986;41.884;23.466;2022-12-18T14:48:54;92928.00;;;7.60
7882;BMP180;3986;41.884;23.466;2022-12-18T14:51:23;92901.00;;;7.70
7882;BMP180;3986;41.884;23.466;2022-12-18T14:53:55;92886.00;;;7.60
7882;BMP180;3986;41.884;23.466;2022-12-18T14:56:24;92913.00;;;7.50
7882;BMP180;3986;41.884;23.466;2022-12-18T14:58:53;92905.00;;;7.40
7882;BMP180;3986;41.884;23.466;2022-12-18T15:01:25;92904.00;;;7.50
7882;BMP180;3986;41.884;23.466;2022-12-18T15:03:53;92900.00;;;7.30
7882;BMP180;3986;41.884;23.466;2022-12-18T15:06:29;92913.00;;;7.20